createdAt,value
2023-06-07T00:01:55.883Z,99110.63
2023-06-07T00:05:01.259Z,99106.06
2023-06-07T00:08:05.513Z,99101.41
2023-06-07T00:11:10.217Z,99107.63
2023-06-07T00:14:13.742Z,99107.06
2023-06-07T00:17:17.411Z,99104.13
2023-06-07T00:20:22.590Z,99109.22
2023-06-07T00:23:30.070Z,99105.66
2023-06-07T00:26:33.962Z,99102.69
2023-06-07T00:29:38.263Z,99103.13
2023-06-07T00:32:43.260Z,99095.22
2023-06-07T00:35:48.523Z,99104.66
2023-06-07T00:38:52.770Z,99099.97
2023-06-07T00:41:57.939Z,99104.13
2023-06-07T00:45:01.579Z,99099.00
2023-06-07T00:48:06.365Z,99102.97
2023-06-07T00:51:12.413Z,99101.97
2023-06-07T00:54:19.112Z,99103.91
2023-06-07T00:57:23.382Z,99106.19
2023-06-07T01:00:27.572Z,99104.28
2023-06-07T01:03:32.886Z,99102.56
2023-06-07T01:06:39.308Z,99100.03
2023-06-07T01:09:42.864Z,99105.81
2023-06-07T01:12:49.061Z,99098.91
2023-06-07T01:15:53.969Z,99102.28
2023-06-07T01:19:04.746Z,99099.47
2023-06-07T01:22:11.991Z,99099.88
2023-06-07T01:25:17.182Z,99093.25
2023-06-07T01:28:21.262Z,99098.47
2023-06-07T01:31:27.813Z,99097.47
2023-06-07T01:34:32.225Z,99091.28
2023-06-07T01:37:37.178Z,99092.97
2023-06-07T01:40:43.226Z,99090.59
2023-06-07T01:43:49.837Z,99086.47
2023-06-07T01:46:53.496Z,99092.41
2023-06-07T01:50:01.162Z,99096.91
2023-06-07T01:53:05.123Z,99098.44
2023-06-07T01:56:18.703Z,99094.25
2023-06-07T01:59:30.999Z,99102.31
2023-06-07T02:02:42.968Z,99100.56
2023-06-07T02:05:50.735Z,99090.28
2023-06-07T02:08:57.188Z,99098.34
2023-06-07T02:12:07.397Z,99095.50
2023-06-07T02:15:11.919Z,99092.69
2023-06-07T02:18:18.228Z,99094.38
2023-06-07T02:21:22.121Z,99095.81
2023-06-07T02:24:26.809Z,99095.38
2023-06-07T02:27:31.833Z,99094.09
2023-06-07T02:30:36.961Z,99092.94
2023-06-07T02:33:40.436Z,99095.38
2023-06-07T02:36:44.678Z,99098.88
2023-06-07T02:39:48.166Z,99101.56
2023-06-07T02:42:53.695Z,99096.78
2023-06-07T02:45:57.418Z,99096.63
2023-06-07T02:49:01.329Z,99102.72
2023-06-07T02:52:07.760Z,99102.84
2023-06-07T02:55:11.836Z,99102.72
2023-06-07T02:58:16.871Z,99107.91
2023-06-07T03:01:20.744Z,99101.59
2023-06-07T03:04:29.875Z,99106.13
2023-06-07T03:07:37.098Z,99110.50
2023-06-07T03:10:46.754Z,99109.38
2023-06-07T03:13:58.534Z,99113.88
2023-06-07T03:17:10.347Z,99115.28
2023-06-07T03:20:15.356Z,99117.25
2023-06-07T03:23:20.500Z,99114.72
2023-06-07T03:26:26.932Z,99114.88
2023-06-07T03:29:35.355Z,99117.97
2023-06-07T03:32:39.586Z,99114.69
2023-06-07T03:35:45.615Z,99119.22
2023-06-07T03:38:54.843Z,99119.22
2023-06-07T03:41:58.937Z,99119.22
2023-06-07T03:45:06.106Z,99119.66
2023-06-07T03:48:10.006Z,99122.78
2023-06-07T03:51:14.485Z,99123.47
2023-06-07T03:54:19.480Z,99131.94
2023-06-07T03:57:23.181Z,99127.56
2023-06-07T04:00:29.138Z,99123.59
2023-06-07T04:03:34.258Z,99114.16
2023-06-07T04:06:40.945Z,99118.50
2023-06-07T04:09:45.927Z,99115.16
2023-06-07T04:12:52.006Z,99119.50
2023-06-07T04:15:57.201Z,99119.22
2023-06-07T04:19:02.297Z,99124.44
2023-06-07T04:22:09.404Z,99118.78
2023-06-07T04:25:12.940Z,99124.44
2023-06-07T04:28:16.751Z,99123.69
2023-06-07T04:31:23.946Z,99125.25
2023-06-07T04:34:29.457Z,99124.91
2023-06-07T04:37:33.977Z,99129.78
2023-06-07T04:40:42.452Z,99122.69
2023-06-07T04:43:50.047Z,99124.91
2023-06-07T04:47:07.996Z,99123.69
2023-06-07T04:50:14.915Z,99123.84
2023-06-07T04:53:21.046Z,99125.75
2023-06-07T04:56:26.984Z,99122.38
2023-06-07T04:59:35.934Z,99121.69
2023-06-07T05:02:47.603Z,99121.47
2023-06-07T05:05:56.669Z,99127.63
2023-06-07T05:09:00.444Z,99127.81
2023-06-07T05:12:05.333Z,99125.97
2023-06-07T05:15:10.646Z,99134.13
2023-06-07T05:18:21.416Z,99122.97
2023-06-07T05:21:27.928Z,99128.59
2023-06-07T05:24:32.051Z,99118.00
2023-06-07T05:27:36.233Z,99131.75
2023-06-07T05:30:40.377Z,99133.25
2023-06-07T05:33:46.204Z,99123.50
2023-06-07T05:36:52.674Z,99132.28
2023-06-07T05:39:56.716Z,99133.56
2023-06-07T05:43:00.364Z,99133.47
2023-06-07T05:46:03.956Z,99135.81
2023-06-07T05:49:08.858Z,99142.22
2023-06-07T05:52:12.774Z,99140.88
2023-06-07T05:55:17.739Z,99136.16
2023-06-07T05:58:21.296Z,99136.94
2023-06-07T06:01:25.136Z,99130.25
2023-06-07T06:04:30.556Z,99130.59
2023-06-07T06:07:34.255Z,99132.13
2023-06-07T06:10:37.781Z,99135.66
2023-06-07T06:13:41.525Z,99141.19
2023-06-07T06:16:45.460Z,99139.22
2023-06-07T06:19:50.794Z,99137.97
2023-06-07T06:22:54.534Z,99149.28
2023-06-07T06:25:58.001Z,99143.56
2023-06-07T06:29:02.082Z,99142.06
2023-06-07T06:32:06.572Z,99146.63
2023-06-07T06:35:12.358Z,99142.13
2023-06-07T06:38:16.368Z,99137.91
2023-06-07T06:41:20.593Z,99137.28
2023-06-07T06:44:24.348Z,99140.97
2023-06-07T06:47:28.589Z,99136.41
2023-06-07T06:50:34.439Z,99139.63
2023-06-07T06:53:38.582Z,99140.28
2023-06-07T06:56:42.631Z,99143.19
2023-06-07T06:59:50.467Z,99142.56
2023-06-07T07:02:54.173Z,99132.16
2023-06-07T07:05:59.493Z,99135.56
2023-06-07T07:09:02.952Z,99139.78
2023-06-07T07:12:08.106Z,99143.00
2023-06-07T07:15:11.993Z,99141.81
2023-06-07T07:18:15.775Z,99144.97
2023-06-07T07:21:20.673Z,99139.78
2023-06-07T07:24:24.069Z,99143.28
2023-06-07T07:27:27.458Z,99140.50
2023-06-07T07:30:31.160Z,99143.59
2023-06-07T07:33:34.931Z,99139.44
2023-06-07T07:36:41.090Z,99136.97
2023-06-07T07:39:44.668Z,99141.59
2023-06-07T07:42:48.442Z,99143.72
2023-06-07T07:45:52.265Z,99143.06
2023-06-07T07:48:55.946Z,99140.63
2023-06-07T07:52:01.226Z,99140.78
2023-06-07T07:55:05.565Z,99143.91
2023-06-07T07:58:09.247Z,99143.91
2023-06-07T08:01:13.052Z,99137.72
2023-06-07T08:04:17.057Z,99137.66
2023-06-07T08:07:24.831Z,99141.13
2023-06-07T08:10:28.276Z,99145.75
2023-06-07T08:13:31.786Z,99140.56
2023-06-07T08:16:35.981Z,99146.16
2023-06-07T08:19:39.845Z,99145.66
2023-06-07T08:22:49.298Z,99140.41
2023-06-07T08:25:52.906Z,99148.78
2023-06-07T08:28:56.467Z,99144.56
2023-06-07T08:32:03.524Z,99147.28
2023-06-07T08:35:09.242Z,99137.00
2023-06-07T08:38:18.592Z,99145.25
2023-06-07T08:41:23.175Z,99136.59
2023-06-07T08:44:30.256Z,99134.34
2023-06-07T08:47:38.587Z,99150.94
2023-06-07T08:50:54.700Z,99139.50
2023-06-07T08:54:05.164Z,99141.16
2023-06-07T08:57:11.537Z,99150.06
2023-06-07T09:00:17.990Z,99144.53
2023-06-07T09:03:24.551Z,99128.72
2023-06-07T09:06:29.625Z,99139.75
2023-06-07T09:09:35.872Z,99134.84
2023-06-07T09:12:39.543Z,99139.38
2023-06-07T09:15:51.590Z,99130.13
2023-06-07T09:18:56.868Z,99144.56
2023-06-07T09:22:01.186Z,99137.13
2023-06-07T09:25:13.256Z,99141.19
2023-06-07T09:28:25.239Z,99129.72
2023-06-07T09:31:34.762Z,99133.81
2023-06-07T09:34:39.600Z,99131.66
2023-06-07T09:37:46.955Z,99135.53
2023-06-07T09:40:56.037Z,99126.88
2023-06-07T09:44:03.447Z,99132.66
2023-06-07T09:47:10.393Z,99129.09
2023-06-07T09:50:16.253Z,99132.09
2023-06-07T09:53:24.368Z,99132.09
2023-06-07T09:56:31.483Z,99135.44
2023-06-07T09:59:35.482Z,99130.72
2023-06-07T10:02:43.693Z,99119.69
2023-06-07T10:05:49.962Z,99123.06
2023-06-07T10:08:54.398Z,99117.56
2023-06-07T10:12:01.429Z,99115.78
2023-06-07T10:15:06.255Z,99117.31
2023-06-07T10:18:19.095Z,99120.16
2023-06-07T10:21:28.969Z,99111.28
2023-06-07T10:24:42.900Z,99114.28
2023-06-07T10:27:55.570Z,99111.28
2023-06-07T10:31:06.857Z,99112.38
2023-06-07T10:34:15.343Z,99108.41
2023-06-07T10:37:20.301Z,99100.44
2023-06-07T10:40:27.384Z,99097.38
2023-06-07T10:43:35.237Z,99101.69
2023-06-07T10:46:48.067Z,99098.72
2023-06-07T10:49:53.963Z,99092.22
2023-06-07T10:52:59.539Z,99089.25
2023-06-07T10:56:32.522Z,99089.31
2023-06-07T10:59:38.881Z,99088.22
2023-06-07T11:02:45.649Z,99085.13
2023-06-07T11:06:12.953Z,99083.66
2023-06-07T11:09:30.924Z,99087.66
2023-06-07T11:12:58.213Z,99082.50
2023-06-07T11:16:34.397Z,99082.44
2023-06-07T11:20:07.332Z,99077.59
2023-06-07T11:23:28.953Z,99079.34
2023-06-07T11:26:37.789Z,99069.88
2023-06-07T11:29:45.097Z,99071.50
2023-06-07T11:32:51.731Z,99071.25
2023-06-07T11:35:59.056Z,99068.94
2023-06-07T11:39:10.558Z,99067.69
2023-06-07T11:42:16.593Z,99062.63
2023-06-07T11:45:20.751Z,99065.56
2023-06-07T11:48:32.435Z,99069.34
2023-06-07T11:51:39.939Z,99071.47
2023-06-07T11:54:48.632Z,99068.13
2023-06-07T11:57:57.132Z,99067.19
2023-06-07T12:01:06.011Z,99068.84
2023-06-07T12:04:10.957Z,99068.44
2023-06-07T12:07:23.820Z,99052.53
2023-06-07T12:10:28.981Z,99055.91
2023-06-07T12:13:38.483Z,99049.00
2023-06-07T12:16:42.518Z,99052.81
2023-06-07T12:19:46.749Z,99052.56
2023-06-07T12:22:52.233Z,99057.16
2023-06-07T12:26:07.715Z,99048.94
2023-06-07T12:29:11.125Z,99047.97
2023-06-07T12:32:14.548Z,99048.06
2023-06-07T12:35:18.031Z,99043.97
2023-06-07T12:38:25.723Z,99041.31
2023-06-07T12:41:32.046Z,99032.63
2023-06-07T12:44:36.438Z,99030.28
2023-06-07T12:47:40.273Z,99028.28
2023-06-07T12:50:43.923Z,99027.03
2023-06-07T12:53:48.981Z,99026.84
2023-06-07T12:56:52.466Z,99018.31
2023-06-07T12:59:55.903Z,99015.19
2023-06-07T13:02:59.458Z,99011.91
2023-06-07T13:06:03.846Z,99011.22
2023-06-07T13:09:10.706Z,99019.66
2023-06-07T13:12:15.875Z,99012.94
2023-06-07T13:15:20.227Z,99013.72
2023-06-07T13:18:27.255Z,99019.50
2023-06-07T13:21:31.224Z,99018.75
2023-06-07T13:24:36.294Z,99011.63
2023-06-07T13:27:39.794Z,99018.47
2023-06-07T13:30:43.219Z,99016.25
2023-06-07T13:33:46.970Z,99024.00
2023-06-07T13:36:51.012Z,99015.16
2023-06-07T13:39:55.951Z,99013.34
2023-06-07T13:42:59.341Z,99010.56
2023-06-07T13:46:03.938Z,99010.25
2023-06-07T13:49:08.418Z,98995.03
2023-06-07T13:52:11.901Z,98992.66
2023-06-07T13:55:16.921Z,98993.13
2023-06-07T13:58:21.119Z,98993.69
2023-06-07T14:01:25.313Z,98989.88
2023-06-07T14:04:29.821Z,99001.66
2023-06-07T14:07:33.449Z,99004.63
2023-06-07T14:10:38.383Z,99035.38
2023-06-07T14:13:43.660Z,99035.81
2023-06-07T14:16:47.425Z,99035.44
2023-06-07T14:19:50.808Z,99026.66
2023-06-07T14:22:54.453Z,99086.66
2023-06-07T14:25:59.789Z,99074.38
2023-06-07T14:29:03.565Z,99076.78
2023-06-07T14:32:07.990Z,99065.03
2023-06-07T14:35:11.907Z,99059.00
2023-06-07T14:38:15.654Z,99046.69
2023-06-07T14:41:20.689Z,99042.53
2023-06-07T14:44:25.582Z,99028.91
2023-06-07T14:47:29.158Z,99022.94
2023-06-07T14:50:33.295Z,99025.75
2023-06-07T14:53:37.856Z,99022.25
2023-06-07T14:56:43.137Z,99021.78
2023-06-07T14:59:46.907Z,99018.56
2023-06-07T15:02:51.224Z,99005.84
2023-06-07T15:05:55.026Z,99001.47
2023-06-07T15:08:58.677Z,98981.16
2023-06-07T15:12:06.888Z,98986.53
2023-06-07T15:15:11.391Z,98980.31
2023-06-07T15:18:17.085Z,98982.59
2023-06-07T15:21:20.796Z,98986.69
2023-06-07T15:24:25.006Z,98992.66
2023-06-07T15:27:29.955Z,98990.19
2023-06-07T15:30:33.693Z,98999.88
2023-06-07T15:33:37.198Z,99019.41
2023-06-07T15:36:40.666Z,99016.19
2023-06-07T15:39:47.460Z,99020.19
2023-06-07T15:42:52.376Z,99018.97
2023-06-07T15:45:55.965Z,99014.34
2023-06-07T15:48:59.452Z,99006.59
2023-06-07T15:52:02.937Z,98995.34
2023-06-07T15:55:07.656Z,99001.06
2023-06-07T15:58:13.248Z,98994.66
2023-06-07T16:01:16.877Z,98988.84
2023-06-07T16:04:20.662Z,98996.41
2023-06-07T16:07:24.321Z,98994.44
2023-06-07T16:10:27.974Z,99001.38
2023-06-07T16:13:33.112Z,99006.91
2023-06-07T16:16:36.979Z,99014.31
2023-06-07T16:19:40.736Z,99022.47
2023-06-07T16:22:44.827Z,99020.97
2023-06-07T16:25:49.949Z,99014.44
2023-06-07T16:28:55.075Z,99016.53
2023-06-07T16:31:58.924Z,99023.38
2023-06-07T16:35:03.260Z,99021.25
2023-06-07T16:38:07.023Z,99028.59
2023-06-07T16:41:11.075Z,99021.00
2023-06-07T16:44:18.873Z,99013.72
2023-06-07T16:47:22.427Z,99009.66
2023-06-07T16:50:26.238Z,99009.22
2023-06-07T16:53:29.754Z,99017.03
2023-06-07T16:56:33.473Z,99020.25
2023-06-07T16:59:38.520Z,99020.75
2023-06-07T17:02:47.409Z,99016.22
2023-06-07T17:05:54.242Z,99021.25
2023-06-07T17:08:58.236Z,99019.81
2023-06-07T17:12:01.702Z,99018.72
2023-06-07T17:15:08.536Z,99016.34
2023-06-07T17:18:14.036Z,99017.88
2023-06-07T17:21:18.437Z,99013.66
2023-06-07T17:24:22.335Z,99014.19
2023-06-07T17:27:26.303Z,99011.41
2023-06-07T17:30:32.075Z,99008.59
2023-06-07T17:33:36.057Z,99010.41
2023-06-07T17:36:43.603Z,99021.03
2023-06-07T17:39:47.616Z,99016.53
2023-06-07T17:42:51.189Z,99012.59
2023-06-07T17:45:56.317Z,99010.78
2023-06-07T17:48:59.947Z,99007.72
2023-06-07T17:52:13.496Z,99006.81
2023-06-07T17:55:25.929Z,99010.03
2023-06-07T17:58:35.395Z,99015.44
2023-06-07T18:01:40.452Z,99020.81
2023-06-07T18:04:44.448Z,99023.63
2023-06-07T18:07:47.912Z,99038.22
2023-06-07T18:10:54.521Z,99039.25
2023-06-07T18:13:58.264Z,99037.84
2023-06-07T18:17:04.010Z,99040.59
2023-06-07T18:20:09.220Z,99041.97
2023-06-07T18:23:13.598Z,99042.94
2023-06-07T18:26:17.014Z,99050.91
2023-06-07T18:29:20.669Z,99046.88
2023-06-07T18:32:25.542Z,99044.91
2023-06-07T18:35:28.974Z,99043.56
2023-06-07T18:38:32.745Z,99052.94
2023-06-07T18:41:37.206Z,99052.03
2023-06-07T18:44:42.070Z,99053.56
2023-06-07T18:47:48.505Z,99065.38
2023-06-07T18:50:52.458Z,99060.94
2023-06-07T18:53:58.459Z,99061.34
2023-06-07T18:57:05.895Z,99074.47
2023-06-07T19:00:13.962Z,99069.84
2023-06-07T19:03:21.171Z,99080.25
2023-06-07T19:06:25.500Z,99077.25
2023-06-07T19:09:31.534Z,99087.53
2023-06-07T19:12:39.988Z,99083.56
2023-06-07T19:15:43.664Z,99089.13
2023-06-07T19:18:51.386Z,99094.59
2023-06-07T19:22:00.351Z,99094.91
2023-06-07T19:25:04.702Z,99105.09
2023-06-07T19:28:08.588Z,99107.19
2023-06-07T19:31:12.514Z,99106.53
2023-06-07T19:34:17.700Z,99108.72
2023-06-07T19:37:21.317Z,99109.63
2023-06-07T19:40:26.593Z,99112.84
2023-06-07T19:43:30.126Z,99115.84
2023-06-07T19:46:33.703Z,99111.97
2023-06-07T19:49:39.805Z,99127.06
2023-06-07T19:52:43.446Z,99119.50
2023-06-07T19:55:47.014Z,99120.19
2023-06-07T19:58:50.543Z,99122.88
2023-06-07T20:01:55.316Z,99128.66
2023-06-07T20:05:00.717Z,99124.41
2023-06-07T20:08:08.791Z,99122.41
2023-06-07T20:11:12.759Z,99127.94
2023-06-07T20:14:16.477Z,99124.41
2023-06-07T20:17:21.116Z,99124.28
2023-06-07T20:20:26.620Z,99113.47
2023-06-07T20:23:30.529Z,99118.78
2023-06-07T20:26:34.148Z,99106.91
2023-06-07T20:29:40.187Z,99116.53
2023-06-07T20:32:43.779Z,99111.88
2023-06-07T20:35:48.966Z,99119.06
2023-06-07T20:38:52.786Z,99114.81
2023-06-07T20:41:57.628Z,99111.88
2023-06-07T20:45:01.466Z,99113.00
2023-06-07T20:48:05.402Z,99108.06
2023-06-07T20:51:10.298Z,99100.59
2023-06-07T20:54:14.012Z,99105.66
2023-06-07T20:57:17.638Z,99095.94
2023-06-07T21:00:22.892Z,99096.06
2023-06-07T21:03:27.044Z,99095.09
2023-06-07T21:06:32.765Z,99095.38
2023-06-07T21:09:36.320Z,99090.13
2023-06-07T21:12:39.834Z,99088.44
2023-06-07T21:15:45.598Z,99073.63
2023-06-07T21:18:49.124Z,99072.38
2023-06-07T21:21:54.102Z,99079.03
2023-06-07T21:24:57.832Z,99083.22
2023-06-07T21:28:01.384Z,99080.00
2023-06-07T21:31:04.933Z,99078.44
2023-06-07T21:34:08.455Z,99080.00
2023-06-07T21:37:13.582Z,99074.78
2023-06-07T21:40:17.347Z,99076.16
2023-06-07T21:43:21.206Z,99072.19
2023-06-07T21:46:24.835Z,99078.22
2023-06-07T21:49:28.548Z,99078.16
2023-06-07T21:52:33.672Z,99078.59
2023-06-07T21:55:37.280Z,99093.00
2023-06-07T21:58:40.736Z,99101.56
2023-06-07T22:01:44.404Z,99096.72
2023-06-07T22:04:48.663Z,99094.09
2023-06-07T22:07:53.945Z,99096.84
2023-06-07T22:10:57.469Z,99090.88
2023-06-07T22:14:03.980Z,99083.78
2023-06-07T22:17:09.943Z,99086.94
2023-06-07T22:20:15.619Z,99095.22
2023-06-07T22:23:21.604Z,99090.47
2023-06-07T22:26:25.339Z,99094.00
2023-06-07T22:29:28.831Z,99099.69
2023-06-07T22:32:33.901Z,99102.34
2023-06-07T22:35:37.816Z,99098.88
2023-06-07T22:38:42.749Z,99098.69
2023-06-07T22:41:46.580Z,99106.03
2023-06-07T22:44:50.123Z,99109.03
2023-06-07T22:48:04.258Z,99109.63
2023-06-07T22:51:08.356Z,99097.63
2023-06-07T22:54:13.493Z,99101.63
2023-06-07T22:57:17.205Z,99097.22
2023-06-07T23:00:21.380Z,99094.81
2023-06-07T23:03:24.981Z,99103.41
2023-06-07T23:06:32.561Z,99103.47
2023-06-07T23:09:38.047Z,99098.81
2023-06-07T23:12:44.046Z,99091.59
2023-06-07T23:15:47.705Z,99089.94
2023-06-07T23:18:51.716Z,99091.75
2023-06-07T23:21:57.915Z,99096.25
2023-06-07T23:25:02.943Z,99096.88
2023-06-07T23:28:07.343Z,99104.13
2023-06-07T23:31:10.877Z,99100.69
2023-06-07T23:34:14.471Z,99104.78
2023-06-07T23:37:18.055Z,99103.16
2023-06-07T23:40:23.030Z,99095.22
2023-06-07T23:43:26.927Z,99104.41
2023-06-07T23:46:31.903Z,99109.75
2023-06-07T23:49:36.271Z,99104.13
2023-06-07T23:52:42.892Z,99104.09
2023-06-07T23:55:47.833Z,99111.41
2023-06-07T23:58:51.421Z,99102.22
